Time;durP1;ratioP1;P1;durP2;ratioP2;P2;SDS_P1;SDS_P2;PMS_P1;PMS_P2;Temp;Humidity;BMP_temperature;BMP_pressure;BME280_temperature;BME280_humidity;BME280_pressure;Samples;Min_cycle;Max_cycle;Signal;HPM_P1;HPM_P2
2023/06/20 00:01:35;;;;;;;17.33;13.13;;;14.50;99.90;;;;;;4358991;28;659080;-70
2023/06/20 00:04:24;;;;;;;16.47;12.50;;;14.50;99.90;;;;;;4373897;28;660281;-69
2023/06/20 00:07:11;;;;;;;18.97;12.97;;;14.50;99.90;;;;;;4361422;28;658734;-69
2023/06/20 00:09:58;;;;;;;20.77;12.93;;;14.50;99.90;;;;;;4380023;28;659690;-68
2023/06/20 00:12:46;;;;;;;20.17;13.33;;;14.50;99.90;;;;;;4363243;28;658623;-70
2023/06/20 00:15:33;;;;;;;19.27;12.77;;;14.40;99.90;;;;;;4382444;28;659240;-70
2023/06/20 00:18:20;;;;;;;16.00;12.23;;;14.40;99.90;;;;;;4368529;28;659069;-70
2023/06/20 00:21:09;;;;;;;18.07;12.97;;;14.40;99.90;;;;;;4382951;28;658735;-69
2023/06/20 00:23:56;;;;;;;15.93;12.40;;;14.40;99.90;;;;;;4359870;28;658498;-70
2023/06/20 00:26:43;;;;;;;18.17;12.35;;;14.40;99.90;;;;;;4378310;28;659291;-70
2023/06/20 00:29:30;;;;;;;19.07;12.67;;;14.30;99.90;;;;;;4359681;28;658249;-69
2023/06/20 00:32:18;;;;;;;17.57;13.10;;;14.30;99.90;;;;;;4381969;28;659417;-69
2023/06/20 00:35:06;;;;;;;17.13;12.23;;;14.20;99.90;;;;;;4374089;28;658508;-70
2023/06/20 00:37:55;;;;;;;19.03;12.10;;;14.20;99.90;;;;;;4380523;28;659609;-69
2023/06/20 00:40:42;;;;;;;16.73;12.43;;;14.20;99.90;;;;;;4358296;28;659012;-69
2023/06/20 00:43:29;;;;;;;17.83;12.87;;;14.20;99.90;;;;;;4370529;28;658312;-69
2023/06/20 00:46:17;;;;;;;16.67;12.60;;;14.20;99.90;;;;;;4361374;28;658633;-70
2023/06/20 00:49:04;;;;;;;17.03;12.53;;;14.20;99.90;;;;;;4383923;28;658579;-69
2023/06/20 00:51:51;;;;;;;18.17;12.60;;;14.20;99.90;;;;;;4357051;28;658779;-69
2023/06/20 00:54:40;;;;;;;21.33;12.70;;;14.20;99.90;;;;;;4377404;28;658695;-69
2023/06/20 00:57:28;;;;;;;16.47;12.70;;;14.20;99.90;;;;;;4353542;28;658758;-69
2023/06/20 01:00:16;;;;;;;15.77;12.47;;;14.20;99.90;;;;;;4361515;28;658617;-70
2023/06/20 01:03:06;;;;;;;17.88;12.88;;;14.20;99.90;;;;;;4379210;28;659865;-69
2023/06/20 01:05:57;;;;;;;17.10;12.60;;;14.10;99.90;;;;;;4358120;28;658545;-69
2023/06/20 01:08:47;;;;;;;16.33;12.47;;;14.10;99.90;;;;;;4361987;28;659665;-70
2023/06/20 01:11:39;;;;;;;18.73;13.43;;;14.10;99.90;;;;;;4358832;28;659498;-69
2023/06/20 01:14:31;;;;;;;17.80;13.30;;;14.10;99.90;;;;;;4356529;28;658129;-69
2023/06/20 01:17:19;;;;;;;20.87;13.37;;;14.00;99.90;;;;;;4350648;28;659402;-69
2023/06/20 01:20:09;;;;;;;16.03;12.17;;;14.00;99.90;;;;;;4363570;28;658877;-69
2023/06/20 01:23:02;;;;;;;16.47;13.27;;;13.90;99.90;;;;;;4358487;28;658735;-69
2023/06/20 01:25:52;;;;;;;19.70;13.30;;;13.90;99.90;;;;;;4356930;28;658245;-69
2023/06/20 01:28:41;;;;;;;16.80;12.67;;;13.90;99.90;;;;;;4356739;28;658689;-69
2023/06/20 01:31:30;;;;;;;17.95;12.68;;;13.90;99.90;;;;;;4360228;28;659196;-69
2023/06/20 01:34:19;;;;;;;20.03;13.03;;;13.80;99.90;;;;;;4349847;28;658864;-70
2023/06/20 01:37:07;;;;;;;17.30;12.90;;;13.80;99.90;;;;;;4365056;28;658649;-69
2023/06/20 01:39:57;;;;;;;17.53;13.20;;;13.70;99.90;;;;;;4381492;28;659101;-69
2023/06/20 01:42:45;;;;;;;17.57;12.67;;;13.70;99.90;;;;;;4362518;28;658867;-69
2023/06/20 01:45:33;;;;;;;17.27;12.27;;;13.70;99.90;;;;;;4362803;28;659754;-69
2023/06/20 01:48:21;;;;;;;16.83;11.93;;;13.70;99.90;;;;;;4362722;28;659026;-69
2023/06/20 01:51:08;;;;;;;16.20;12.30;;;13.70;99.90;;;;;;4382404;28;658906;-69
2023/06/20 01:53:55;;;;;;;17.63;12.83;;;13.70;99.90;;;;;;4363410;28;658523;-70
2023/06/20 01:56:44;;;;;;;14.73;12.30;;;13.60;99.90;;;;;;4384518;28;658929;-70
2023/06/20 01:59:31;;;;;;;15.07;12.07;;;13.60;99.90;;;;;;4363028;28;659054;-69
2023/06/20 02:02:18;;;;;;;19.97;12.63;;;13.50;99.90;;;;;;4383863;28;658777;-68
2023/06/20 02:05:07;;;;;;;17.53;12.30;;;13.50;99.90;;;;;;4359658;28;659770;-69
2023/06/20 02:07:55;;;;;;;17.10;12.83;;;13.50;99.90;;;;;;4371916;28;658336;-70
2023/06/20 02:10:42;;;;;;;22.37;14.03;;;13.40;99.90;;;;;;4357193;28;659372;-69
2023/06/20 02:13:30;;;;;;;19.47;14.17;;;13.30;99.90;;;;;;4380131;28;658434;-69
2023/06/20 02:16:18;;;;;;;22.63;14.13;;;13.30;99.90;;;;;;4354770;28;659516;-69
2023/06/20 02:19:06;;;;;;;17.67;13.57;;;13.30;99.90;;;;;;4369454;28;658908;-71
2023/06/20 02:21:53;;;;;;;19.10;13.40;;;13.30;99.90;;;;;;4380681;28;659469;-69
2023/06/20 02:24:40;;;;;;;18.03;13.17;;;13.30;99.90;;;;;;4356016;28;658817;-69
2023/06/20 02:27:27;;;;;;;20.13;13.00;;;13.20;99.90;;;;;;4374673;28;659500;-70
2023/06/20 02:30:17;;;;;;;16.53;12.80;;;13.20;99.90;;;;;;4375143;28;659020;-70
2023/06/20 02:33:05;;;;;;;19.73;13.27;;;13.20;99.90;;;;;;4388049;28;658394;-69
2023/06/20 02:35:52;;;;;;;15.53;12.53;;;13.30;99.90;;;;;;4361566;28;659152;-69
2023/06/20 02:38:39;;;;;;;18.00;13.17;;;13.20;99.90;;;;;;4384161;28;658538;-69
2023/06/20 02:41:26;;;;;;;14.47;12.00;;;13.20;99.90;;;;;;4356577;28;660179;-69
2023/06/20 02:44:14;;;;;;;16.47;11.90;;;13.20;99.90;;;;;;4384999;28;658860;-69
2023/06/20 02:47:08;;;;;;;17.87;12.37;;;13.20;99.90;;;;;;4363748;28;658738;-69
2023/06/20 02:50:03;;;;;;;17.10;11.97;;;13.30;99.90;;;;;;4348765;28;658555;-70
2023/06/20 02:52:53;;;;;;;16.73;12.90;;;13.30;99.90;;;;;;4341523;28;659116;-71
2023/06/20 02:55:44;;;;;;;17.50;12.57;;;13.20;99.90;;;;;;4363547;28;658727;-70
2023/06/20 02:58:32;;;;;;;17.23;13.00;;;13.30;99.90;;;;;;4402528;28;658769;-69
2023/06/20 03:01:23;;;;;;;16.30;11.90;;;13.30;99.90;;;;;;4413921;28;658683;-69
2023/06/20 03:04:12;;;;;;;15.97;12.37;;;13.30;99.90;;;;;;4381125;28;658761;-70
2023/06/20 03:07:01;;;;;;;16.97;12.50;;;13.30;99.90;;;;;;4385474;28;658594;-70
2023/06/20 03:09:48;;;;;;;15.70;11.57;;;13.30;99.90;;;;;;4385217;28;659482;-69
2023/06/20 03:12:36;;;;;;;16.70;12.17;;;13.40;99.90;;;;;;4358613;28;659040;-69
2023/06/20 03:15:23;;;;;;;16.07;11.90;;;13.40;99.90;;;;;;4391711;28;658879;-69
2023/06/20 03:18:11;;;;;;;17.13;11.67;;;13.40;99.90;;;;;;4363833;28;659058;-69
2023/06/20 03:21:05;;;;;;;18.90;11.70;;;13.40;99.90;;;;;;4382101;28;658531;-69
2023/06/20 03:23:56;;;;;;;18.50;12.40;;;13.50;99.90;;;;;;4337196;28;659151;-70
2023/06/20 03:26:43;;;;;;;18.47;12.33;;;13.50;99.90;;;;;;4361397;28;659375;-70
2023/06/20 03:29:35;;;;;;;15.80;12.20;;;13.50;99.90;;;;;;4353852;28;659730;-69
2023/06/20 03:32:27;;;;;;;14.67;11.70;;;13.60;99.90;;;;;;4363059;28;660055;-68
2023/06/20 03:35:18;;;;;;;17.33;11.90;;;13.70;99.90;;;;;;4362255;28;661190;-69
2023/06/20 03:38:12;;;;;;;17.63;11.47;;;13.70;99.90;;;;;;4339470;28;659109;-69
2023/06/20 03:41:04;;;;;;;15.67;11.10;;;13.80;99.90;;;;;;4358008;28;659286;-69
2023/06/20 03:43:56;;;;;;;16.50;11.70;;;13.90;99.90;;;;;;4363421;28;659370;-70
2023/06/20 03:46:47;;;;;;;16.70;11.33;;;14.00;99.90;;;;;;4360927;28;658773;-68
2023/06/20 03:49:37;;;;;;;14.47;11.10;;;14.10;99.90;;;;;;4360704;28;658541;-68
2023/06/20 03:52:24;;;;;;;14.65;11.18;;;14.20;99.90;;;;;;4364822;28;658134;-69
2023/06/20 03:55:13;;;;;;;15.47;11.10;;;14.40;99.90;;;;;;4367426;28;658766;-69
2023/06/20 03:58:03;;;;;;;14.93;10.83;;;14.50;99.90;;;;;;4371146;28;659180;-71
2023/06/20 04:00:50;;;;;;;13.93;10.90;;;14.50;99.90;;;;;;4367733;28;659333;-71
2023/06/20 04:03:38;;;;;;;16.20;11.00;;;14.60;99.90;;;;;;4384256;28;659698;-69
2023/06/20 04:06:30;;;;;;;12.97;10.10;;;14.70;99.90;;;;;;4377077;28;658443;-70
2023/06/20 04:09:17;;;;;;;13.53;10.77;;;14.80;99.90;;;;;;4349978;28;659423;-69
2023/06/20 04:12:07;;;;;;;13.75;10.65;;;15.00;99.90;;;;;;4394947;28;658701;-69
2023/06/20 04:14:54;;;;;;;13.77;10.57;;;15.10;99.90;;;;;;4361673;28;658340;-69
2023/06/20 04:17:41;;;;;;;18.10;10.37;;;15.30;99.90;;;;;;4361182;28;659154;-68
2023/06/20 04:20:29;;;;;;;15.50;10.33;;;15.40;99.90;;;;;;4379895;28;659183;-70
2023/06/20 04:23:17;;;;;;;11.80;9.80;;;15.60;99.90;;;;;;4356500;28;658764;-70
2023/06/20 04:26:04;;;;;;;15.80;10.83;;;15.80;99.90;;;;;;4382579;28;657241;-70
2023/06/20 04:28:52;;;;;;;13.63;10.47;;;15.90;99.90;;;;;;4362434;28;659076;-69
2023/06/20 04:31:40;;;;;;;15.07;9.40;;;16.00;99.90;;;;;;4382221;28;658791;-68
2023/06/20 04:34:28;;;;;;;11.60;8.77;;;16.20;99.90;;;;;;4356793;28;658752;-69
2023/06/20 04:37:15;;;;;;;12.40;8.97;;;16.40;99.90;;;;;;4364554;28;658097;-70
2023/06/20 04:40:03;;;;;;;11.70;9.20;;;16.50;99.90;;;;;;4381753;28;658561;-70
2023/06/20 04:42:50;;;;;;;12.17;9.43;;;16.70;99.90;;;;;;4364687;28;659316;-70
2023/06/20 04:45:39;;;;;;;12.93;9.47;;;16.90;99.90;;;;;;4390230;28;658475;-69
2023/06/20 04:48:28;;;;;;;12.30;8.67;;;17.10;99.90;;;;;;4357673;28;657685;-69
2023/06/20 04:51:16;;;;;;;13.63;9.53;;;17.20;99.90;;;;;;4365235;28;657396;-69
2023/06/20 04:54:03;;;;;;;16.60;9.73;;;17.40;99.90;;;;;;4383933;28;658208;-69
2023/06/20 04:56:50;;;;;;;14.18;9.40;;;17.60;99.90;;;;;;4363272;28;658154;-70
2023/06/20 04:59:38;;;;;;;12.83;8.97;;;17.80;99.90;;;;;;4379504;28;659352;-68
2023/06/20 05:02:27;;;;;;;13.67;9.20;;;18.00;99.90;;;;;;4364833;28;657292;-70
2023/06/20 05:05:14;;;;;;;10.60;9.17;;;18.20;99.90;;;;;;4382487;28;658116;-70
2023/06/20 05:08:01;;;;;;;15.87;9.17;;;18.30;99.90;;;;;;4361280;28;657756;-68
2023/06/20 05:10:48;;;;;;;12.97;8.77;;;18.50;99.90;;;;;;4381079;28;657583;-69
2023/06/20 05:13:35;;;;;;;12.10;8.90;;;18.70;99.90;;;;;;4362601;28;658159;-69
2023/06/20 05:16:23;;;;;;;11.90;8.90;;;18.90;99.90;;;;;;4370952;28;659029;-70
2023/06/20 05:19:12;;;;;;;9.53;8.17;;;19.10;99.90;;;;;;4373088;28;657841;-71
2023/06/20 05:21:59;;;;;;;11.80;8.93;;;19.20;99.90;;;;;;4378609;28;656487;-69
2023/06/20 05:24:46;;;;;;;10.00;8.02;;;19.40;99.90;;;;;;4359725;28;657915;-70
2023/06/20 05:27:34;;;;;;;10.23;7.87;;;19.50;99.90;;;;;;4377822;28;657494;-68
2023/06/20 05:30:21;;;;;;;12.57;7.97;;;19.80;99.90;;;;;;4362680;28;659436;-68
2023/06/20 05:33:08;;;;;;;11.43;8.10;;;19.90;99.90;;;;;;4386472;28;659099;-69
2023/06/20 05:35:58;;;;;;;10.20;7.50;;;20.10;99.90;;;;;;4356240;28;658229;-68
2023/06/20 05:38:48;;;;;;;12.07;8.23;;;20.30;99.90;;;;;;4359438;28;657305;-70
2023/06/20 05:41:35;;;;;;;15.13;8.17;;;20.50;99.90;;;;;;4373536;28;658140;-69
2023/06/20 05:44:22;;;;;;;13.33;7.70;;;20.60;99.90;;;;;;4386961;28;659500;-68
2023/06/20 05:47:17;;;;;;;9.13;7.30;;;20.80;99.90;;;;;;4381311;28;657829;-70
2023/06/20 05:50:05;;;;;;;12.23;7.82;;;21.00;99.90;;;;;;4360116;28;656639;-69
2023/06/20 05:52:53;;;;;;;10.67;7.93;;;21.10;99.90;;;;;;4354054;28;657647;-68
2023/06/20 05:55:42;;;;;;;9.47;7.50;;;21.30;99.90;;;;;;4359873;28;659358;-69
2023/06/20 05:58:29;;;;;;;12.93;7.20;;;21.50;99.90;;;;;;4385466;28;657052;-69
2023/06/20 06:01:16;;;;;;;9.93;7.77;;;21.70;99.90;;;;;;4369301;28;657907;-69
2023/06/20 06:04:04;;;;;;;9.90;7.60;;;21.80;99.90;;;;;;4387278;28;656174;-69
2023/06/20 06:06:51;;;;;;;9.60;7.37;;;22.00;99.90;;;;;;4359264;28;656549;-69
2023/06/20 06:09:40;;;;;;;10.85;7.15;;;22.10;99.90;;;;;;4384692;28;656718;-70
2023/06/20 06:12:27;;;;;;;16.20;7.33;;;22.30;99.90;;;;;;4359337;28;658884;-69
2023/06/20 06:15:14;;;;;;;10.23;7.17;;;22.50;99.90;;;;;;4384631;28;657537;-70
2023/06/20 06:18:03;;;;;;;9.60;7.37;;;22.70;99.90;;;;;;4364162;28;657411;-69
2023/06/20 06:20:51;;;;;;;11.77;7.70;;;22.80;99.90;;;;;;4361364;28;656973;-70
2023/06/20 06:23:38;;;;;;;14.23;7.67;;;23.00;99.90;;;;;;4389503;28;659481;-69
2023/06/20 06:26:27;;;;;;;12.83;6.90;;;23.30;99.90;;;;;;4366975;28;657503;-69
2023/06/20 06:29:15;;;;;;;10.30;7.50;;;23.40;99.90;;;;;;4379910;28;658029;-69
2023/06/20 06:32:02;;;;;;;9.47;7.37;;;23.50;99.90;;;;;;4363219;28;658792;-69
2023/06/20 06:34:50;;;;;;;12.33;8.03;;;23.60;99.90;;;;;;4383483;28;656579;-69
2023/06/20 06:37:40;;;;;;;11.53;7.13;;;23.80;99.90;;;;;;4366645;28;657896;-69
2023/06/20 06:40:27;;;;;;;14.60;7.43;;;23.80;99.90;;;;;;4346790;28;657896;-68
2023/06/20 06:43:16;;;;;;;11.27;7.40;;;24.00;99.90;;;;;;4373503;28;657853;-69
2023/06/20 06:46:03;;;;;;;9.68;6.78;;;24.10;99.90;;;;;;4348946;28;658246;-69
2023/06/20 06:48:50;;;;;;;13.63;7.22;;;24.10;99.90;;;;;;4354859;28;656409;-69
2023/06/20 06:51:38;;;;;;;9.30;7.25;;;24.20;99.90;;;;;;4378845;28;658967;-69
2023/06/20 06:54:25;;;;;;;12.02;6.70;;;24.30;99.90;;;;;;4372443;28;656943;-69
2023/06/20 06:57:12;;;;;;;9.45;6.50;;;24.40;99.90;;;;;;4375906;28;658543;-69
2023/06/20 07:00:09;;;;;;;9.90;6.47;;;24.50;99.90;;;;;;4375119;28;656971;-68
2023/06/20 07:02:56;;;;;;;10.38;6.90;;;24.80;99.90;;;;;;4361623;28;656252;-68
2023/06/20 07:05:43;;;;;;;20.50;6.88;;;24.90;99.90;;;;;;4384690;28;657521;-69
2023/06/20 07:08:30;;;;;;;9.07;6.53;;;25.10;99.90;;;;;;4366591;28;657842;-69
2023/06/20 07:11:18;;;;;;;12.05;6.38;;;25.20;99.90;;;;;;4383423;28;657668;-70
2023/06/20 07:14:05;;;;;;;10.25;6.88;;;25.40;98.50;;;;;;4371384;28;658370;-70
2023/06/20 07:16:54;;;;;;;9.57;7.28;;;25.30;95.30;;;;;;4383610;28;658869;-68
2023/06/20 07:19:41;;;;;;;15.40;7.95;;;25.40;98.10;;;;;;4361882;28;656337;-68
2023/06/20 07:22:28;;;;;;;8.52;6.75;;;25.50;97.10;;;;;;4372247;28;658386;-68
2023/06/20 07:25:18;;;;;;;12.50;6.80;;;25.70;98.50;;;;;;4366040;28;656525;-69
2023/06/20 07:28:06;;;;;;;12.50;7.00;;;25.90;97.20;;;;;;4369478;28;658085;-69
2023/06/20 07:30:53;;;;;;;10.63;6.63;;;25.70;94.70;;;;;;4378200;28;658400;-68
2023/06/20 07:33:42;;;;;;;12.57;6.97;;;26.00;97.00;;;;;;4365912;28;658074;-69
2023/06/20 07:36:29;;;;;;;10.38;6.65;;;26.20;94.80;;;;;;4386374;28;657197;-69
2023/06/20 07:39:16;;;;;;;10.57;7.25;;;26.40;94.40;;;;;;4354973;28;657193;-68
2023/06/20 07:42:04;;;;;;;12.60;6.38;;;26.50;92.90;;;;;;4381832;28;657865;-69
2023/06/20 07:44:51;;;;;;;15.63;6.88;;;26.70;88.30;;;;;;4360027;28;657571;-68
2023/06/20 07:47:38;;;;;;;11.45;6.40;;;26.80;90.20;;;;;;4380875;28;657166;-68
2023/06/20 07:50:27;;;;;;;10.15;7.30;;;26.80;77.90;;;;;;4365311;28;657452;-69
2023/06/20 07:53:14;;;;;;;9.00;6.00;;;26.70;78.70;;;;;;4383830;28;657299;-68
2023/06/20 07:56:02;;;;;;;11.75;5.78;;;27.00;76.60;;;;;;4367812;28;656426;-69
2023/06/20 07:58:49;;;;;;;7.75;6.70;;;26.90;61.70;;;;;;4379322;28;657738;-69
2023/06/20 08:01:36;;;;;;;10.82;6.38;;;27.10;66.60;;;;;;4363433;28;656634;-69
2023/06/20 08:04:23;;;;;;;7.90;6.20;;;27.30;62.10;;;;;;4380814;28;657748;-68
2023/06/20 08:07:12;;;;;;;12.55;6.63;;;27.10;59.40;;;;;;4365406;28;657359;-68
2023/06/20 08:10:00;;;;;;;8.90;6.65;;;27.30;64.70;;;;;;4380451;28;657663;-68
2023/06/20 08:12:47;;;;;;;11.15;7.15;;;27.50;64.50;;;;;;4358925;28;657818;-67
2023/06/20 08:15:34;;;;;;;9.77;7.13;;;27.70;65.20;;;;;;4378256;28;657445;-68
2023/06/20 08:18:21;;;;;;;10.35;7.10;;;27.90;65.90;;;;;;4366493;28;656919;-68
2023/06/20 08:21:08;;;;;;;9.88;6.97;;;28.20;65.20;;;;;;4380504;28;657879;-68
2023/06/20 08:23:57;;;;;;;8.95;7.25;;;28.60;65.80;;;;;;4365882;28;657259;-68
2023/06/20 08:26:44;;;;;;;9.45;6.70;;;28.80;62.90;;;;;;4374966;28;657195;-69
2023/06/20 08:29:31;;;;;;;8.27;6.60;;;29.10;60.80;;;;;;4367172;28;656922;-69
2023/06/20 08:32:19;;;;;;;11.60;6.80;;;28.80;58.40;;;;;;4385426;28;656600;-68
2023/06/20 08:35:08;;;;;;;8.07;6.70;;;28.10;56.70;;;;;;4361006;28;657568;-68
2023/06/20 08:37:55;;;;;;;9.68;6.43;;;28.20;58.60;;;;;;4362941;28;656511;-69
2023/06/20 08:40:45;;;;;;;7.47;6.13;;;28.40;54.90;;;;;;4387948;28;657359;-68
2023/06/20 08:43:34;;;;;;;8.13;5.88;;;28.30;56.10;;;;;;4359987;28;656830;-68
2023/06/20 08:46:24;;;;;;;8.75;6.03;;;28.30;56.60;;;;;;4365021;28;656748;-68
2023/06/20 08:49:14;;;;;;;7.10;6.35;;;28.50;54.00;;;;;;4358009;28;656825;-68
2023/06/20 08:52:03;;;;;;;7.70;6.40;;;29.00;55.00;;;;;;4356209;28;656452;-69
2023/06/20 08:54:51;;;;;;;11.45;6.38;;;29.30;55.70;;;;;;4361026;28;656276;-68
2023/06/20 08:57:39;;;;;;;12.10;7.40;;;29.20;53.40;;;;;;4379407;28;658422;-68
2023/06/20 09:00:27;;;;;;;7.60;6.33;;;29.70;53.30;;;;;;4349849;28;657506;-68
2023/06/20 09:03:14;;;;;;;7.43;6.10;;;30.10;53.00;;;;;;4374482;28;656430;-68
2023/06/20 09:06:01;;;;;;;7.63;6.20;;;30.50;51.30;;;;;;4351639;28;656322;-67
2023/06/20 09:08:48;;;;;;;10.18;6.60;;;30.70;50.80;;;;;;4380988;28;660362;-68
2023/06/20 09:11:36;;;;;;;10.35;6.10;;;31.00;51.70;;;;;;4355916;28;657623;-68
2023/06/20 09:14:28;;;;;;;7.60;6.40;;;31.30;50.30;;;;;;4375128;28;658051;-68
2023/06/20 09:17:16;;;;;;;8.35;6.38;;;31.20;50.10;;;;;;4339015;28;657199;-69
2023/06/20 09:20:05;;;;;;;9.75;6.75;;;31.30;50.20;;;;;;4378271;28;657201;-68
2023/06/20 09:22:53;;;;;;;11.00;6.57;;;31.10;48.10;;;;;;4349956;28;656699;-68
2023/06/20 09:25:40;;;;;;;8.98;6.65;;;31.00;51.90;;;;;;4368165;28;657847;-69
2023/06/20 09:28:32;;;;;;;10.68;6.63;;;30.70;48.90;;;;;;4371224;28;657349;-68
2023/06/20 09:31:22;;;;;;;10.48;7.03;;;30.50;49.10;;;;;;4372958;28;657235;-69
2023/06/20 09:34:12;;;;;;;11.20;6.63;;;30.70;48.80;;;;;;4371480;28;657224;-68
2023/06/20 09:37:00;;;;;;;10.93;6.50;;;30.80;52.80;;;;;;4360946;28;657690;-67
2023/06/20 09:39:47;;;;;;;11.40;6.80;;;31.30;49.60;;;;;;4357456;28;658374;-67
2023/06/20 09:42:34;;;;;;;12.20;6.15;;;31.20;47.50;;;;;;4383818;28;657582;-69
2023/06/20 09:45:21;;;;;;;8.80;6.33;;;31.20;47.90;;;;;;4367070;28;657598;-69
2023/06/20 09:48:10;;;;;;;8.60;7.00;;;31.00;46.70;;;;;;4387787;28;656050;-68
2023/06/20 09:50:58;;;;;;;7.77;6.40;;;31.20;45.90;;;;;;4363680;28;659375;-68
2023/06/20 09:53:48;;;;;;;7.80;6.47;;;31.00;45.60;;;;;;4380106;28;656948;-68
2023/06/20 09:56:37;;;;;;;8.50;6.72;;;30.80;45.10;;;;;;4369260;28;656508;-69
2023/06/20 09:59:24;;;;;;;8.90;6.30;;;30.70;43.90;;;;;;4402027;28;656345;-68
2023/06/20 10:02:12;;;;;;;6.78;6.05;;;30.70;43.70;;;;;;4373217;28;656955;-68
2023/06/20 10:05:00;;;;;;;8.10;6.63;;;30.60;45.50;;;;;;4384757;28;657163;-70
2023/06/20 10:07:48;;;;;;;9.30;6.00;;;31.20;44.80;;;;;;4360731;28;656901;-67
2023/06/20 10:10:35;;;;;;;9.05;6.82;;;31.70;42.60;;;;;;4365892;28;656675;-68
2023/06/20 10:13:23;;;;;;;8.75;6.28;;;31.10;43.70;;;;;;4382640;28;658170;-68
2023/06/20 10:16:10;;;;;;;9.27;6.78;;;31.00;43.40;;;;;;4372401;28;656371;-69
2023/06/20 10:18:58;;;;;;;8.38;6.45;;;31.20;45.30;;;;;;4381116;28;657677;-67
2023/06/20 10:22:04;;;;;;;7.40;6.45;;;30.20;42.40;;;;;;4366089;28;657081;-68
2023/06/20 10:24:52;;;;;;;11.88;6.53;;;30.10;42.00;;;;;;4364177;28;656495;-67
2023/06/20 10:27:41;;;;;;;10.07;6.10;;;29.60;43.00;;;;;;4382492;28;658187;-68
2023/06/20 10:30:56;;;;;;;8.25;6.70;;;30.20;41.70;;;;;;4363845;28;657885;-68
2023/06/20 10:33:46;;;;;;;13.82;6.68;;;30.80;44.20;;;;;;4317339;28;656790;-68
2023/06/20 10:36:33;;;;;;;9.55;6.38;;;31.20;42.10;;;;;;4363744;28;657808;-67
2023/06/20 10:39:22;;;;;;;9.00;6.50;;;31.60;45.40;;;;;;4362573;28;656723;-69
2023/06/20 10:42:09;;;;;;;10.13;6.50;;;31.80;43.10;;;;;;4386096;28;657107;-68
2023/06/20 10:45:18;;;;;;;8.13;6.57;;;31.90;41.80;;;;;;4362120;28;658160;-67
2023/06/20 10:48:05;;;;;;;9.25;6.63;;;31.10;41.90;;;;;;4370448;28;656423;-68
2023/06/20 10:50:57;;;;;;;8.93;6.50;;;30.60;42.60;;;;;;4381940;28;657465;-67
2023/06/20 10:53:44;;;;;;;8.63;6.43;;;31.20;43.10;;;;;;4360514;28;656481;-68
2023/06/20 10:56:35;;;;;;;8.05;6.10;;;31.90;43.10;;;;;;4367452;28;657028;-67
2023/06/20 10:59:22;;;;;;;9.77;6.77;;;31.50;40.20;;;;;;4359832;28;657250;-70
2023/06/20 11:02:09;;;;;;;8.90;5.97;;;31.10;41.60;;;;;;4378263;28;657024;-71
2023/06/20 11:04:57;;;;;;;8.77;6.40;;;31.10;39.30;;;;;;4364295;28;657234;-68
2023/06/20 11:07:54;;;;;;;7.85;6.88;;;31.20;40.10;;;;;;4372047;28;656551;-68
2023/06/20 11:10:42;;;;;;;9.02;6.20;;;30.80;39.80;;;;;;4363976;28;656556;-68
2023/06/20 11:13:30;;;;;;;9.35;6.50;;;31.60;41.40;;;;;;4378871;28;656906;-68
2023/06/20 11:16:19;;;;;;;9.43;6.60;;;31.60;39.50;;;;;;4354992;27;658466;-69
2023/06/20 11:19:06;;;;;;;7.80;6.47;;;31.40;39.70;;;;;;4363106;28;656491;-69
2023/06/20 11:21:53;;;;;;;8.75;6.40;;;31.40;39.70;;;;;;4379645;28;656856;-68
2023/06/20 11:24:41;;;;;;;8.68;6.32;;;31.60;39.80;;;;;;4355924;28;656530;-68
2023/06/20 11:27:28;;;;;;;10.13;6.57;;;31.50;40.50;;;;;;4377988;28;656985;-67
2023/06/20 11:30:17;;;;;;;9.32;6.22;;;31.70;40.60;;;;;;4358492;28;658281;-69
2023/06/20 11:33:08;;;;;;;6.95;6.25;;;31.80;39.70;;;;;;4373222;28;656145;-68
2023/06/20 11:35:56;;;;;;;6.95;6.25;;;31.90;39.70;;;;;;4335241;28;656848;-68
2023/06/20 11:38:44;;;;;;;8.77;6.55;;;31.70;40.00;;;;;;4370603;28;656597;-69
2023/06/20 11:41:32;;;;;;;8.48;6.70;;;31.60;41.40;;;;;;4355186;28;657155;-68
2023/06/20 11:44:22;;;;;;;9.00;6.60;;;32.10;40.50;;;;;;4375165;28;656916;-68
2023/06/20 11:47:12;;;;;;;11.50;6.70;;;32.60;41.70;;;;;;4374773;28;656573;-69
2023/06/20 11:49:59;;;;;;;10.02;7.13;;;32.40;38.40;;;;;;4384693;28;658736;-68
2023/06/20 11:52:46;;;;;;;9.30;6.55;;;32.00;41.30;;;;;;4354267;28;657294;-69
2023/06/20 11:55:49;;;;;;;7.40;6.35;;;32.10;39.50;;;;;;4386908;28;658052;-68
2023/06/20 11:58:37;;;;;;;7.22;5.72;;;32.20;38.40;;;;;;4366068;28;656494;-69
2023/06/20 12:01:25;;;;;;;8.95;6.75;;;32.50;40.40;;;;;;4370748;28;657692;-69
2023/06/20 12:04:14;;;;;;;11.27;6.40;;;32.70;37.60;;;;;;4381831;28;658082;-69
2023/06/20 12:07:04;;;;;;;7.93;6.95;;;33.30;38.60;;;;;;4361309;28;657802;-69
2023/06/20 12:09:51;;;;;;;10.20;6.57;;;32.60;38.10;;;;;;4359244;28;656758;-68
2023/06/20 12:12:39;;;;;;;10.02;6.38;;;32.10;39.50;;;;;;4380195;28;657691;-69
2023/06/20 12:15:26;;;;;;;8.88;6.75;;;32.60;38.30;;;;;;4362384;28;657606;-69
2023/06/20 12:18:13;;;;;;;9.95;6.40;;;32.80;37.40;;;;;;4385035;28;657224;-69
2023/06/20 12:21:02;;;;;;;8.07;6.60;;;32.60;40.40;;;;;;4361598;28;656698;-69
2023/06/20 12:23:49;;;;;;;7.72;6.68;;;32.10;39.50;;;;;;4384259;28;656479;-68
2023/06/20 12:26:37;;;;;;;9.00;6.53;;;31.70;38.90;;;;;;4368430;28;656585;-69
2023/06/20 12:29:24;;;;;;;12.82;7.22;;;31.30;39.60;;;;;;4385146;28;657555;-69
2023/06/20 12:32:11;;;;;;;8.83;7.07;;;31.00;40.00;;;;;;4358561;28;657563;-69
2023/06/20 12:34:59;;;;;;;9.90;6.72;;;31.00;41.50;;;;;;4385575;28;656932;-69
2023/06/20 12:37:47;;;;;;;10.13;7.07;;;31.10;43.50;;;;;;4361665;28;656729;-69
2023/06/20 12:40:34;;;;;;;9.00;6.93;;;31.80;42.90;;;;;;4381136;28;657922;-69
2023/06/20 12:43:22;;;;;;;9.18;6.57;;;32.10;39.90;;;;;;4364891;28;656706;-69
2023/06/20 12:46:09;;;;;;;11.73;7.57;;;31.90;39.60;;;;;;4368759;28;656919;-69
2023/06/20 12:48:57;;;;;;;10.00;7.03;;;31.60;39.60;;;;;;4363574;28;658778;-68
2023/06/20 12:51:44;;;;;;;7.32;6.53;;;31.90;40.00;;;;;;4381702;28;657317;-69
2023/06/20 12:54:33;;;;;;;12.87;6.80;;;32.60;43.10;;;;;;4362841;28;656158;-69
2023/06/20 12:57:20;;;;;;;8.80;6.78;;;33.00;41.10;;;;;;4365582;28;657500;-69
2023/06/20 13:00:09;;;;;;;7.70;6.30;;;33.70;39.20;;;;;;4387156;28;657487;-69
2023/06/20 13:02:56;;;;;;;8.63;6.70;;;34.20;37.80;;;;;;4352579;28;656939;-69
2023/06/20 13:05:43;;;;;;;10.93;6.75;;;33.80;35.80;;;;;;4387600;28;656996;-69
2023/06/20 13:08:30;;;;;;;9.25;6.70;;;33.40;36.50;;;;;;4367019;28;658233;-69
2023/06/20 13:11:19;;;;;;;10.52;7.32;;;33.30;38.20;;;;;;4380365;28;657540;-68
2023/06/20 13:14:06;;;;;;;9.25;6.95;;;33.20;39.60;;;;;;4356452;28;657793;-69
2023/06/20 13:16:53;;;;;;;13.63;7.03;;;33.20;40.80;;;;;;4389522;28;657150;-69
2023/06/20 13:19:41;;;;;;;9.50;6.78;;;33.00;40.80;;;;;;4355266;28;657654;-69
2023/06/20 13:22:28;;;;;;;8.80;7.15;;;32.90;41.80;;;;;;4386518;28;656961;-69
2023/06/20 13:25:15;;;;;;;12.77;6.90;;;33.00;42.10;;;;;;4362561;28;656371;-70
2023/06/20 13:28:05;;;;;;;13.57;7.50;;;33.00;41.50;;;;;;4381745;28;658691;-69
2023/06/20 13:30:53;;;;;;;9.32;7.20;;;33.30;40.40;;;;;;4366794;28;658611;-69
2023/06/20 13:33:41;;;;;;;8.45;7.15;;;33.80;40.80;;;;;;4371734;28;656608;-69
2023/06/20 13:36:28;;;;;;;10.50;6.88;;;34.20;39.60;;;;;;4390633;28;657049;-69
2023/06/20 13:39:15;;;;;;;9.20;7.68;;;34.50;40.60;;;;;;4356134;28;657320;-69
2023/06/20 13:42:02;;;;;;;14.10;7.15;;;34.40;41.10;;;;;;4384555;28;658158;-69
2023/06/20 13:44:52;;;;;;;10.10;6.88;;;34.40;40.90;;;;;;4383176;28;658298;-69
2023/06/20 13:47:40;;;;;;;12.63;7.15;;;34.60;40.90;;;;;;4378084;28;658480;-69
2023/06/20 13:50:27;;;;;;;11.18;6.93;;;35.00;39.90;;;;;;4364710;28;659915;-69
2023/06/20 13:53:14;;;;;;;9.30;7.20;;;35.20;40.00;;;;;;4385117;28;658415;-69
2023/06/20 13:56:02;;;;;;;10.60;7.30;;;35.70;39.90;;;;;;4348963;28;657463;-69
2023/06/20 13:58:49;;;;;;;10.20;7.28;;;36.10;37.80;;;;;;4380302;28;657584;-68
2023/06/20 14:01:39;;;;;;;9.73;6.93;;;35.80;37.50;;;;;;4367526;28;657714;-69
2023/06/20 14:04:26;;;;;;;16.37;6.93;;;35.90;38.50;;;;;;4363430;28;656715;-68
2023/06/20 14:07:14;;;;;;;15.82;7.13;;;36.10;38.40;;;;;;4383204;28;658049;-69
2023/06/20 14:10:01;;;;;;;8.35;7.10;;;36.10;38.30;;;;;;4366240;28;657812;-68
2023/06/20 14:12:48;;;;;;;10.25;6.85;;;35.40;39.20;;;;;;4375324;28;657091;-68
2023/06/20 14:15:36;;;;;;;8.43;6.85;;;35.00;38.60;;;;;;4352847;28;657919;-68